Time;durP1;ratioP1;P1;durP2;ratioP2;P2;SDS_P1;SDS_P2;PMS_P1;PMS_P2;Temp;Humidity;BMP_temperature;BMP_pressure;BME280_temperature;BME280_humidity;BME280_pressure;Samples;Min_cycle;Max_cycle;Signal;HPM_P1;HPM_P2
2023/12/24 00:00:17;;;;;;;12.27;2.65;;;;;;;;;;5052901;28;20344;-77
2023/12/24 00:02:43;;;;;;;10.38;1.80;;;;;;;;;;5050396;28;20048;-74
2023/12/24 00:05:10;;;;;;;10.95;1.95;;;;;;;;;;5048186;28;20044;-76
2023/12/24 00:07:36;;;;;;;9.20;3.15;;;;;;;;;;5047330;28;20051;-76
2023/12/24 00:10:02;;;;;;;13.38;2.72;;;;;;;;;;5081801;28;20017;-76
2023/12/24 00:12:28;;;;;;;13.23;2.38;;;;;;;;;;5043827;28;20021;-76
2023/12/24 00:14:54;;;;;;;15.27;2.47;;;;;;;;;;5053007;28;20037;-75
2023/12/24 00:17:20;;;;;;;12.43;2.30;;;;;;;;;;5053784;28;20028;-76
2023/12/24 00:19:47;;;;;;;9.40;1.80;;;;;;;;;;5054745;28;20045;-76
2023/12/24 00:22:13;;;;;;;13.90;2.30;;;;;;;;;;5035923;28;20196;-76
2023/12/24 00:24:41;;;;;;;11.65;2.47;;;;;;;;;;5051411;28;20295;-77
2023/12/24 00:27:07;;;;;;;12.70;2.47;;;;;;;;;;5046826;28;20116;-76
2023/12/24 00:29:34;;;;;;;13.75;2.47;;;;;;;;;;5054109;28;20040;-76
2023/12/24 00:32:00;;;;;;;13.82;2.40;;;;;;;;;;5052504;28;20059;-75
2023/12/24 00:34:28;;;;;;;16.52;3.35;;;;;;;;;;5036090;28;20498;-76
2023/12/24 00:36:54;;;;;;;15.65;2.53;;;;;;;;;;5050497;28;20059;-76
2023/12/24 00:39:20;;;;;;;12.65;2.70;;;;;;;;;;5068618;28;20021;-76
2023/12/24 00:41:46;;;;;;;10.93;2.30;;;;;;;;;;5052897;28;20517;-76
2023/12/24 00:44:12;;;;;;;18.65;2.90;;;;;;;;;;5052665;28;20063;-76
2023/12/24 00:46:39;;;;;;;18.98;3.35;;;;;;;;;;5036508;28;20493;-77
2023/12/24 00:49:05;;;;;;;14.73;2.70;;;;;;;;;;5050749;28;20036;-74
2023/12/24 00:51:31;;;;;;;15.05;3.03;;;;;;;;;;5051537;28;20053;-75
2023/12/24 00:53:57;;;;;;;16.67;3.28;;;;;;;;;;5056656;28;20025;-74
2023/12/24 00:56:23;;;;;;;15.32;2.78;;;;;;;;;;5061964;28;20116;-75
2023/12/24 00:58:49;;;;;;;16.42;3.35;;;;;;;;;;5078554;28;20060;-74
2023/12/24 01:01:15;;;;;;;13.07;2.78;;;;;;;;;;5055879;28;20347;-74
2023/12/24 01:03:41;;;;;;;15.57;3.60;;;;;;;;;;5055011;28;20037;-75
2023/12/24 01:06:08;;;;;;;19.75;3.55;;;;;;;;;;5053170;28;20631;-75
2023/12/24 01:08:34;;;;;;;13.60;2.88;;;;;;;;;;5053087;28;20029;-76
2023/12/24 01:11:00;;;;;;;15.50;2.90;;;;;;;;;;5051286;28;20028;-76
2023/12/24 01:13:26;;;;;;;15.77;3.22;;;;;;;;;;5051365;28;20055;-76
2023/12/24 01:15:53;;;;;;;17.80;3.47;;;;;;;;;;5049638;28;20025;-76
2023/12/24 01:18:20;;;;;;;22.35;3.15;;;;;;;;;;5050921;28;20127;-76
2023/12/24 01:20:48;;;;;;;20.30;3.60;;;;;;;;;;5047604;28;20053;-76
2023/12/24 01:23:14;;;;;;;20.92;4.53;;;;;;;;;;5052637;28;20033;-75
2023/12/24 01:25:40;;;;;;;24.48;3.22;;;;;;;;;;5032029;28;20043;-74
2023/12/24 01:28:06;;;;;;;17.35;3.13;;;;;;;;;;5047239;28;20041;-76
2023/12/24 01:30:33;;;;;;;21.40;3.55;;;;;;;;;;5046581;28;20449;-76
2023/12/24 01:32:59;;;;;;;23.80;3.67;;;;;;;;;;5048523;28;20032;-75
2023/12/24 01:35:25;;;;;;;24.17;6.03;;;;;;;;;;5048868;28;20045;-76
2023/12/24 01:37:51;;;;;;;23.48;3.75;;;;;;;;;;5048940;28;20029;-76
2023/12/24 01:40:17;;;;;;;20.90;4.28;;;;;;;;;;5082315;28;20106;-75
2023/12/24 01:42:45;;;;;;;21.52;4.45;;;;;;;;;;5055452;28;20048;-76
2023/12/24 01:45:12;;;;;;;29.20;4.90;;;;;;;;;;5059134;28;20028;-77
2023/12/24 01:47:38;;;;;;;25.45;4.85;;;;;;;;;;5053901;28;20489;-76
2023/12/24 01:50:05;;;;;;;30.63;5.45;;;;;;;;;;5046274;28;20025;-75
2023/12/24 01:52:31;;;;;;;19.83;4.43;;;;;;;;;;5046589;28;20044;-76
2023/12/24 01:54:57;;;;;;;23.80;4.22;;;;;;;;;;5046267;28;20029;-76
2023/12/24 01:57:23;;;;;;;25.20;4.55;;;;;;;;;;5045250;28;20043;-75
2023/12/24 01:59:50;;;;;;;18.70;4.30;;;;;;;;;;5029792;28;20086;-76
2023/12/24 02:02:18;;;;;;;20.63;4.88;;;;;;;;;;5044840;28;20033;-75
2023/12/24 02:04:44;;;;;;;23.75;4.15;;;;;;;;;;5045916;28;20025;-75
2023/12/24 02:07:11;;;;;;;25.67;4.85;;;;;;;;;;5040869;28;20040;-76
2023/12/24 02:09:38;;;;;;;20.40;4.63;;;;;;;;;;5049148;28;20052;-75
2023/12/24 02:12:05;;;;;;;19.95;4.25;;;;;;;;;;5040170;28;20044;-77
2023/12/24 02:14:31;;;;;;;21.70;3.88;;;;;;;;;;5041937;28;20035;-75
2023/12/24 02:16:59;;;;;;;29.17;5.15;;;;;;;;;;5050394;28;20134;-76
2023/12/24 02:19:25;;;;;;;25.75;4.30;;;;;;;;;;5049803;28;20041;-76
2023/12/24 02:21:51;;;;;;;21.83;5.93;;;;;;;;;;5030695;28;20029;-76
2023/12/24 02:24:18;;;;;;;29.30;5.47;;;;;;;;;;5048868;28;20037;-74
2023/12/24 02:26:51;;;;;;;18.67;4.38;;;;;;;;;;5041497;28;20037;-75
2023/12/24 02:29:20;;;;;;;28.52;4.60;;;;;;;;;;5041917;28;20053;-74
2023/12/24 02:31:48;;;;;;;24.13;4.72;;;;;;;;;;5047672;28;20057;-76
2023/12/24 02:34:17;;;;;;;19.67;4.03;;;;;;;;;;5056274;28;20114;-75
2023/12/24 02:36:46;;;;;;;24.23;5.20;;;;;;;;;;5050308;28;20025;-75
2023/12/24 02:39:13;;;;;;;22.65;4.78;;;;;;;;;;5048080;28;20029;-76
2023/12/24 02:41:39;;;;;;;27.20;5.00;;;;;;;;;;5046410;28;20487;-75
2023/12/24 02:44:05;;;;;;;24.30;5.50;;;;;;;;;;5049730;28;20040;-75
2023/12/24 02:46:31;;;;;;;24.38;4.57;;;;;;;;;;5038532;28;20029;-76
2023/12/24 02:48:57;;;;;;;20.80;3.70;;;;;;;;;;5044598;28;20025;-76
2023/12/24 02:51:23;;;;;;;19.95;3.92;;;;;;;;;;5038002;28;20116;-76
2023/12/24 02:53:50;;;;;;;12.48;3.40;;;;;;;;;;5042822;28;20043;-75
2023/12/24 02:56:16;;;;;;;19.90;4.07;;;;;;;;;;5025520;28;20474;-76
2023/12/24 02:58:43;;;;;;;20.65;3.30;;;;;;;;;;5024573;28;20033;-76
2023/12/24 03:01:10;;;;;;;18.23;3.72;;;;;;;;;;5019763;28;20474;-76
2023/12/24 03:03:36;;;;;;;13.27;2.78;;;;;;;;;;5047327;28;20112;-76
2023/12/24 03:06:03;;;;;;;5.55;2.35;;;;;;;;;;5046873;28;20083;-74
2023/12/24 03:08:29;;;;;;;10.00;2.88;;;;;;;;;;5047959;28;20025;-77
2023/12/24 03:10:56;;;;;;;9.15;2.35;;;;;;;;;;5029921;28;20458;-75
2023/12/24 03:13:25;;;;;;;11.68;2.70;;;;;;;;;;5030215;28;20086;-75
2023/12/24 03:15:51;;;;;;;13.38;2.35;;;;;;;;;;5046929;28;20033;-76
2023/12/24 03:18:17;;;;;;;9.38;2.35;;;;;;;;;;5052936;28;20106;-77
2023/12/24 03:20:44;;;;;;;8.93;1.85;;;;;;;;;;5048021;28;20084;-75
2023/12/24 03:23:10;;;;;;;10.77;2.00;;;;;;;;;;5046346;28;20094;-76
2023/12/24 03:25:36;;;;;;;7.25;1.85;;;;;;;;;;5047744;28;20044;-76
2023/12/24 03:28:02;;;;;;;5.85;1.80;;;;;;;;;;5046811;28;20111;-76
2023/12/24 03:30:29;;;;;;;4.70;1.48;;;;;;;;;;5045878;28;20120;-76
2023/12/24 03:32:55;;;;;;;10.20;2.53;;;;;;;;;;5047382;28;20055;-75
2023/12/24 03:35:21;;;;;;;7.47;1.60;;;;;;;;;;5048168;28;20029;-75
2023/12/24 03:37:47;;;;;;;7.35;1.65;;;;;;;;;;5045363;28;20029;-75
2023/12/24 03:40:14;;;;;;;10.00;1.77;;;;;;;;;;5046642;28;20040;-75
2023/12/24 03:42:40;;;;;;;5.25;1.50;;;;;;;;;;5044019;28;20052;-75
2023/12/24 03:45:06;;;;;;;6.82;1.70;;;;;;;;;;5013795;28;20048;-76
2023/12/24 03:47:32;;;;;;;6.60;1.50;;;;;;;;;;5030562;28;20055;-75
2023/12/24 03:49:59;;;;;;;7.22;1.92;;;;;;;;;;5034034;28;20048;-75
2023/12/24 03:52:25;;;;;;;6.57;1.83;;;;;;;;;;5049806;28;20083;-76
2023/12/24 03:54:51;;;;;;;12.35;1.60;;;;;;;;;;5029645;28;20041;-75
2023/12/24 03:57:17;;;;;;;11.70;2.38;;;;;;;;;;5029094;28;20108;-75
2023/12/24 03:59:43;;;;;;;8.73;1.80;;;;;;;;;;5045067;28;20045;-75
2023/12/24 04:02:10;;;;;;;10.18;1.92;;;;;;;;;;5046657;28;20461;-76
2023/12/24 04:04:36;;;;;;;9.38;2.08;;;;;;;;;;5045490;28;21317;-75
2023/12/24 04:07:02;;;;;;;11.95;2.55;;;;;;;;;;5045731;28;20036;-76
2023/12/24 04:09:31;;;;;;;7.15;2.30;;;;;;;;;;5045563;28;20406;-75
2023/12/24 04:11:57;;;;;;;11.77;2.00;;;;;;;;;;5029618;28;20048;-74
2023/12/24 04:14:24;;;;;;;10.73;2.22;;;;;;;;;;5046255;28;20025;-76
2023/12/24 04:16:50;;;;;;;13.70;2.38;;;;;;;;;;5044161;28;20025;-75
2023/12/24 04:19:16;;;;;;;5.97;2.17;;;;;;;;;;5042794;28;20142;-75
2023/12/24 04:21:42;;;;;;;10.57;2.63;;;;;;;;;;5045161;28;20307;-76
2023/12/24 04:24:08;;;;;;;11.57;2.20;;;;;;;;;;5029114;28;20021;-76
2023/12/24 04:26:38;;;;;;;11.98;2.35;;;;;;;;;;5046036;28;20057;-76
2023/12/24 04:29:05;;;;;;;8.93;2.05;;;;;;;;;;5041089;28;20021;-75
2023/12/24 04:31:33;;;;;;;8.73;2.95;;;;;;;;;;5029150;28;20025;-77
2023/12/24 04:33:59;;;;;;;11.52;2.60;;;;;;;;;;5045089;28;20029;-75
2023/12/24 04:36:26;;;;;;;14.13;3.03;;;;;;;;;;5033870;28;20522;-75
2023/12/24 04:38:53;;;;;;;8.35;2.60;;;;;;;;;;5059194;28;20099;-74
2023/12/24 04:41:19;;;;;;;10.60;2.45;;;;;;;;;;5076001;28;20032;-75
2023/12/24 04:43:46;;;;;;;12.30;2.78;;;;;;;;;;5029244;28;20049;-76
2023/12/24 04:46:12;;;;;;;10.13;2.55;;;;;;;;;;5040557;28;20029;-76
2023/12/24 04:48:38;;;;;;;12.10;2.65;;;;;;;;;;5078418;28;20037;-74
2023/12/24 04:51:05;;;;;;;12.18;3.13;;;;;;;;;;5038510;28;20046;-76
2023/12/24 04:53:32;;;;;;;14.60;3.10;;;;;;;;;;5026926;28;20570;-74
2023/12/24 04:55:58;;;;;;;14.82;3.38;;;;;;;;;;5034351;28;20020;-75
2023/12/24 04:58:24;;;;;;;21.77;3.72;;;;;;;;;;5027418;28;20120;-76
2023/12/24 05:00:50;;;;;;;16.10;4.03;;;;;;;;;;5064495;28;20064;-77
2023/12/24 05:03:16;;;;;;;15.85;4.00;;;;;;;;;;5066050;28;20167;-76
2023/12/24 05:05:43;;;;;;;23.55;4.10;;;;;;;;;;5050287;28;20056;-77
2023/12/24 05:08:10;;;;;;;24.60;4.53;;;;;;;;;;5083824;28;20029;-76
2023/12/24 05:10:36;;;;;;;21.60;4.35;;;;;;;;;;5048735;28;20076;-76
2023/12/24 05:13:02;;;;;;;22.25;5.00;;;;;;;;;;5045203;28;20044;-76
2023/12/24 05:15:29;;;;;;;18.42;4.68;;;;;;;;;;5082214;28;20033;-76
2023/12/24 05:17:55;;;;;;;22.25;5.07;;;;;;;;;;5035091;28;20032;-76
2023/12/24 05:20:22;;;;;;;22.77;5.53;;;;;;;;;;5075602;28;20037;-75
2023/12/24 05:22:48;;;;;;;22.25;6.72;;;;;;;;;;5047605;28;20034;-75
2023/12/24 05:25:14;;;;;;;29.33;6.22;;;;;;;;;;5031909;28;20114;-75
2023/12/24 05:27:41;;;;;;;28.38;6.68;;;;;;;;;;5049080;28;20055;-76
2023/12/24 05:30:08;;;;;;;34.53;7.47;;;;;;;;;;5050796;28;20060;-74
2023/12/24 05:32:34;;;;;;;27.77;6.60;;;;;;;;;;5034361;28;20048;-76
2023/12/24 05:35:00;;;;;;;33.30;7.43;;;;;;;;;;5054559;28;20061;-74
2023/12/24 05:37:26;;;;;;;36.47;6.85;;;;;;;;;;5059985;28;20037;-76
2023/12/24 05:39:52;;;;;;;31.45;7.32;;;;;;;;;;5036323;28;20045;-76
2023/12/24 05:42:19;;;;;;;38.72;7.80;;;;;;;;;;5031650;28;20064;-75
2023/12/24 05:44:45;;;;;;;32.20;8.27;;;;;;;;;;5031171;28;20038;-76
2023/12/24 05:47:11;;;;;;;35.00;8.18;;;;;;;;;;5032618;28;20049;-75
2023/12/24 05:49:40;;;;;;;35.30;7.65;;;;;;;;;;5043939;28;20302;-75
2023/12/24 05:52:06;;;;;;;34.33;7.95;;;;;;;;;;5030260;28;20044;-75
2023/12/24 05:54:33;;;;;;;35.28;8.77;;;;;;;;;;5030932;28;20029;-75
2023/12/24 05:56:59;;;;;;;47.70;9.20;;;;;;;;;;5041124;28;20093;-75
2023/12/24 05:59:25;;;;;;;30.25;7.78;;;;;;;;;;5049011;28;20033;-76
2023/12/24 06:01:51;;;;;;;37.20;8.30;;;;;;;;;;5048357;28;20226;-76
2023/12/24 06:04:17;;;;;;;34.47;8.77;;;;;;;;;;5051207;28;20026;-76
2023/12/24 06:06:43;;;;;;;38.72;8.07;;;;;;;;;;5034025;28;20045;-75
2023/12/24 06:09:09;;;;;;;36.75;8.60;;;;;;;;;;5031265;28;20038;-76
2023/12/24 06:11:35;;;;;;;43.13;8.93;;;;;;;;;;5051121;28;20040;-76
2023/12/24 06:14:02;;;;;;;48.13;9.23;;;;;;;;;;5051773;28;20394;-75
2023/12/24 06:16:29;;;;;;;35.00;8.02;;;;;;;;;;5077802;28;20032;-76
2023/12/24 06:18:55;;;;;;;44.58;10.65;;;;;;;;;;5043036;28;20120;-76
2023/12/24 06:21:21;;;;;;;33.90;8.75;;;;;;;;;;5047818;28;20063;-76
2023/12/24 06:23:50;;;;;;;38.15;8.77;;;;;;;;;;5049911;28;20029;-75
2023/12/24 06:26:16;;;;;;;39.05;9.73;;;;;;;;;;5045679;28;20570;-75
2023/12/24 06:28:42;;;;;;;43.90;9.52;;;;;;;;;;5034418;28;20474;-75
2023/12/24 06:31:09;;;;;;;38.75;8.85;;;;;;;;;;5049316;28;20028;-75
2023/12/24 06:33:36;;;;;;;38.38;9.85;;;;;;;;;;5039985;28;20223;-75
2023/12/24 06:36:02;;;;;;;39.72;10.05;;;;;;;;;;5071371;28;20033;-75
2023/12/24 06:38:28;;;;;;;40.03;9.60;;;;;;;;;;5045472;28;20100;-76
2023/12/24 06:40:54;;;;;;;40.00;11.13;;;;;;;;;;5047755;28;20124;-76
2023/12/24 06:43:20;;;;;;;46.97;10.00;;;;;;;;;;5048449;28;20375;-76
2023/12/24 06:45:46;;;;;;;46.05;10.82;;;;;;;;;;5047079;28;20055;-77
2023/12/24 06:48:12;;;;;;;51.00;11.43;;;;;;;;;;5046969;28;20033;-77
2023/12/24 06:50:39;;;;;;;47.78;10.98;;;;;;;;;;5041119;28;20048;-76
2023/12/24 06:53:05;;;;;;;48.85;12.10;;;;;;;;;;5048851;28;20057;-75
2023/12/24 06:55:31;;;;;;;44.95;11.13;;;;;;;;;;5047895;28;20109;-76
2023/12/24 06:57:58;;;;;;;40.17;10.00;;;;;;;;;;5027504;28;20064;-76
2023/12/24 07:00:24;;;;;;;54.88;12.52;;;;;;;;;;5042210;28;20029;-75
2023/12/24 07:02:51;;;;;;;45.72;9.90;;;;;;;;;;5045223;28;20394;-76
2023/12/24 07:05:17;;;;;;;40.72;10.38;;;;;;;;;;5030649;28;20399;-76
2023/12/24 07:07:43;;;;;;;50.63;11.52;;;;;;;;;;5041964;28;20301;-76
2023/12/24 07:10:10;;;;;;;44.63;10.52;;;;;;;;;;5028576;28;20026;-76
2023/12/24 07:12:36;;;;;;;41.50;9.50;;;;;;;;;;5043143;28;20450;-76
2023/12/24 07:15:03;;;;;;;39.72;10.23;;;;;;;;;;5051324;28;20482;-75
2023/12/24 07:17:29;;;;;;;46.30;10.82;;;;;;;;;;5041556;28;20057;-76
2023/12/24 07:19:55;;;;;;;50.05;11.25;;;;;;;;;;5033506;28;20057;-75
2023/12/24 07:22:21;;;;;;;37.80;10.73;;;;;;;;;;5018949;28;20029;-74
2023/12/24 07:24:47;;;;;;;51.15;11.32;;;;;;;;;;5042900;28;20028;-76
2023/12/24 07:27:13;;;;;;;49.22;10.73;;;;;;;;;;5046209;28;20083;-77
2023/12/24 07:29:43;;;;;;;41.00;10.80;;;;;;;;;;5046239;28;20037;-77
2023/12/24 07:32:09;;;;;;;42.70;11.43;;;;;;;;;;5046963;28;20402;-75
2023/12/24 07:34:35;;;;;;;51.10;11.10;;;;;;;;;;5033165;28;20033;-74
2023/12/24 07:37:01;;;;;;;50.75;11.32;;;;;;;;;;5042184;28;20106;-76
2023/12/24 07:39:28;;;;;;;47.30;11.63;;;;;;;;;;5048381;28;20033;-76
2023/12/24 07:41:55;;;;;;;44.95;10.95;;;;;;;;;;5047897;28;20044;-75
2023/12/24 07:44:21;;;;;;;40.35;12.30;;;;;;;;;;5031284;28;20048;-75
2023/12/24 07:46:48;;;;;;;47.60;11.77;;;;;;;;;;5036193;28;20041;-75
2023/12/24 07:49:14;;;;;;;49.85;11.32;;;;;;;;;;5040394;28;20438;-76
2023/12/24 07:51:41;;;;;;;68.25;13.80;;;;;;;;;;5040243;28;20041;-75
2023/12/24 07:54:07;;;;;;;49.97;10.40;;;;;;;;;;5044237;28;20025;-76
2023/12/24 07:56:33;;;;;;;56.55;11.57;;;;;;;;;;5038198;28;20486;-75
2023/12/24 07:58:59;;;;;;;48.22;10.50;;;;;;;;;;5038528;28;20033;-75
2023/12/24 08:01:25;;;;;;;37.40;8.60;;;;;;;;;;5062799;28;20542;-76
2023/12/24 08:03:51;;;;;;;40.20;8.15;;;;;;;;;;5027410;28;20124;-76
2023/12/24 08:06:20;;;;;;;37.60;7.88;;;;;;;;;;5046535;28;20104;-76
2023/12/24 08:08:46;;;;;;;35.65;7.05;;;;;;;;;;5047301;28;20311;-76
2023/12/24 08:11:13;;;;;;;31.13;6.93;;;;;;;;;;5047394;28;20037;-76
2023/12/24 08:13:39;;;;;;;32.83;5.78;;;;;;;;;;5048448;28;20037;-76
2023/12/24 08:16:06;;;;;;;30.73;6.65;;;;;;;;;;5047275;28;20418;-76
2023/12/24 08:18:32;;;;;;;25.35;6.32;;;;;;;;;;5044417;28;20033;-76
2023/12/24 08:20:59;;;;;;;21.50;5.60;;;;;;;;;;5043203;28;20103;-76
2023/12/24 08:23:25;;;;;;;22.05;5.28;;;;;;;;;;5048671;28;20037;-75
2023/12/24 08:25:51;;;;;;;23.98;5.68;;;;;;;;;;5047699;28;20037;-74
2023/12/24 08:28:17;;;;;;;21.60;5.75;;;;;;;;;;5048532;28;20116;-74
2023/12/24 08:30:44;;;;;;;29.83;7.05;;;;;;;;;;5045584;28;20148;-76
2023/12/24 08:33:10;;;;;;;30.95;6.97;;;;;;;;;;5048809;28;20406;-76
2023/12/24 08:35:36;;;;;;;32.70;6.88;;;;;;;;;;5024979;28;20060;-76
2023/12/24 08:38:03;;;;;;;25.23;7.18;;;;;;;;;;5033312;28;20041;-76
2023/12/24 08:40:29;;;;;;;29.80;7.72;;;;;;;;;;5035249;28;20029;-77
2023/12/24 08:42:55;;;;;;;39.47;8.90;;;;;;;;;;5032690;28;20112;-76
2023/12/24 08:45:25;;;;;;;30.83;8.80;;;;;;;;;;5053396;28;20066;-75
2023/12/24 08:47:51;;;;;;;36.05;8.63;;;;;;;;;;5072745;28;20029;-75
2023/12/24 08:50:17;;;;;;;35.85;7.90;;;;;;;;;;5050399;28;20109;-76
2023/12/24 08:52:43;;;;;;;33.55;8.43;;;;;;;;;;5039590;28;20056;-76
2023/12/24 08:55:09;;;;;;;39.42;8.57;;;;;;;;;;5051475;28;20498;-75
2023/12/24 08:57:36;;;;;;;41.90;8.80;;;;;;;;;;5051803;28;20064;-77
2023/12/24 09:00:03;;;;;;;36.33;8.63;;;;;;;;;;5050507;28;20053;-75
2023/12/24 09:02:29;;;;;;;38.00;8.68;;;;;;;;;;5037117;28;20120;-76
2023/12/24 09:04:57;;;;;;;43.95;8.07;;;;;;;;;;5052262;28;20104;-75
2023/12/24 09:07:24;;;;;;;42.05;9.18;;;;;;;;;;5047465;28;20060;-78
2023/12/24 09:09:51;;;;;;;36.42;8.32;;;;;;;;;;5065020;28;20457;-76
2023/12/24 09:12:19;;;;;;;40.65;8.25;;;;;;;;;;5052393;28;20052;-76
2023/12/24 09:14:45;;;;;;;45.05;9.65;;;;;;;;;;5056305;28;20029;-76
2023/12/24 09:17:11;;;;;;;34.38;7.90;;;;;;;;;;5050120;28;20561;-76
2023/12/24 09:19:38;;;;;;;42.85;9.60;;;;;;;;;;5044271;28;20053;-76
2023/12/24 09:22:04;;;;;;;41.92;8.88;;;;;;;;;;5050493;28;20035;-76
2023/12/24 09:24:30;;;;;;;40.10;8.35;;;;;;;;;;5048035;28;20033;-75
2023/12/24 09:26:56;;;;;;;34.95;8.52;;;;;;;;;;5033160;28;20189;-76
2023/12/24 09:29:22;;;;;;;37.65;9.85;;;;;;;;;;5037832;28;20029;-76
2023/12/24 09:31:49;;;;;;;49.53;8.63;;;;;;;;;;5051227;28;20064;-75
2023/12/24 09:34:15;;;;;;;36.58;9.23;;;;;;;;;;5051049;28;20103;-76
2023/12/24 09:36:41;;;;;;;37.70;8.95;;;;;;;;;;5043701;28;20395;-76
2023/12/24 09:39:07;;;;;;;41.13;9.10;;;;;;;;;;5029859;28;20045;-75
2023/12/24 09:41:33;;;;;;;39.30;9.88;;;;;;;;;;5038294;28;20102;-75
2023/12/24 09:44:01;;;;;;;52.70;11.05;;;;;;;;;;5031280;28;20037;-75
2023/12/24 09:46:27;;;;;;;53.47;11.50;;;;;;;;;;5050265;28;20536;-76
2023/12/24 09:48:53;;;;;;;51.63;9.77;;;;;;;;;;5050152;28;20044;-75
2023/12/24 09:51:19;;;;;;;43.05;8.55;;;;;;;;;;5052933;28;20090;-76
2023/12/24 09:53:49;;;;;;;41.78;8.20;;;;;;;;;;5051378;28;20048;-75
2023/12/24 09:56:15;;;;;;;56.47;10.25;;;;;;;;;;5051164;28;20048;-76
2023/12/24 09:58:44;;;;;;;52.80;9.07;;;;;;;;;;5048896;28;20033;-76
2023/12/24 10:01:10;;;;;;;49.85;8.77;;;;;;;;;;5050462;28;20345;-77
2023/12/24 10:03:36;;;;;;;44.88;7.95;;;;;;;;;;5049564;28;20422;-75
2023/12/24 10:06:05;;;;;;;52.03;7.95;;;;;;;;;;5048885;28;20509;-75
2023/12/24 10:08:31;;;;;;;41.60;7.78;;;;;;;;;;5042771;28;20097;-76
2023/12/24 10:11:11;;;;;;;53.15;9.13;;;;;;;;;;5029727;28;20030;-76
2023/12/24 10:13:38;;;;;;;35.70;6.68;;;;;;;;;;5039815;28;20053;-76
2023/12/24 10:16:05;;;;;;;45.53;8.43;;;;;;;;;;5064707;28;20103;-76
2023/12/24 10:18:31;;;;;;;41.95;8.00;;;;;;;;;;5076459;28;20033;-76
2023/12/24 10:21:04;;;;;;;45.60;8.23;;;;;;;;;;5041525;28;20053;-76
2023/12/24 10:23:30;;;;;;;44.17;7.40;;;;;;;;;;5049750;28;20430;-77
2023/12/24 10:26:01;;;;;;;44.72;8.05;;;;;;;;;;5048830;28;20055;-76
2023/12/24 10:28:27;;;;;;;46.10;7.55;;;;;;;;;;5039208;28;20025;-76
2023/12/24 10:31:05;;;;;;;50.05;7.97;;;;;;;;;;5048559;28;20063;-76
2023/12/24 10:33:31;;;;;;;57.38;9.95;;;;;;;;;;5046339;28;20036;-75
2023/12/24 10:35:57;;;;;;;44.38;7.05;;;;;;;;;;5050395;28;20025;-76
2023/12/24 10:38:26;;;;;;;50.33;7.57;;;;;;;;;;5049507;28;20032;-77
2023/12/24 10:40:53;;;;;;;47.78;7.60;;;;;;;;;;5048551;28;20070;-76
2023/12/24 10:43:19;;;;;;;43.25;7.32;;;;;;;;;;5044444;28;20037;-76
2023/12/24 10:45:45;;;;;;;55.90;7.97;;;;;;;;;;5047085;28;20386;-76
2023/12/24 10:48:12;;;;;;;44.30;8.30;;;;;;;;;;5033630;28;20037;-76
2023/12/24 10:50:38;;;;;;;43.75;7.32;;;;;;;;;;5033416;28;20040;-77
2023/12/24 10:53:04;;;;;;;41.90;6.88;;;;;;;;;;5030664;28;20037;-77
2023/12/24 10:55:34;;;;;;;35.38;6.55;;;;;;;;;;5046504;28;20025;-78
2023/12/24 10:58:19;;;;;;;46.07;7.03;;;;;;;;;;5044921;28;20037;-76
2023/12/24 11:00:46;;;;;;;48.63;7.00;;;;;;;;;;5042310;28;20291;-77
2023/12/24 11:03:12;;;;;;;33.40;6.25;;;;;;;;;;5034368;28;20070;-77
2023/12/24 11:05:42;;;;;;;36.55;6.28;;;;;;;;;;5046998;28;20100;-76
2023/12/24 11:08:20;;;;;;;28.52;5.60;;;;;;;;;;5052614;28;20054;-77
2023/12/24 11:11:08;;;;;;;36.20;7.32;;;;;;;;;;5046740;28;20033;-77
2023/12/24 11:13:36;;;;;;;34.08;6.38;;;;;;;;;;5043485;28;20399;-76
2023/12/24 11:16:11;;;;;;;32.78;5.40;;;;;;;;;;5047584;28;20493;-75
2023/12/24 11:18:45;;;;;;;23.50;4.90;;;;;;;;;;5044793;28;20033;-75
2023/12/24 11:21:12;;;;;;;26.48;4.32;;;;;;;;;;5044660;28;20118;-76
2023/12/24 11:23:41;;;;;;;27.27;5.20;;;;;;;;;;5047995;28;20033;-76
2023/12/24 11:26:26;;;;;;;25.10;4.97;;;;;;;;;;5048265;28;20044;-76
2023/12/24 11:28:55;;;;;;;26.38;4.22;;;;;;;;;;5043697;28;20028;-76
2023/12/24 11:31:24;;;;;;;22.10;4.03;;;;;;;;;;5045691;28;20039;-75
2023/12/24 11:33:54;;;;;;;19.00;4.07;;;;;;;;;;5047236;28;20441;-75
2023/12/24 11:36:21;;;;;;;22.38;4.85;;;;;;;;;;5048221;28;20043;-76
2023/12/24 11:38:48;;;;;;;31.08;5.97;;;;;;;;;;5045492;28;20107;-76
2023/12/24 11:41:18;;;;;;;22.98;5.00;;;;;;;;;;5044953;28;20509;-76
2023/12/24 11:43:57;;;;;;;27.38;5.28;;;;;;;;;;5042626;28;20045;-75
2023/12/24 11:46:24;;;;;;;25.83;4.30;;;;;;;;;;5045645;28;20118;-75
2023/12/24 11:48:50;;;;;;;23.52;5.47;;;;;;;;;;5026187;28;20029;-75
2023/12/24 11:51:22;;;;;;;23.38;4.68;;;;;;;;;;5046592;28;20041;-75
2023/12/24 11:53:49;;;;;;;33.17;5.43;;;;;;;;;;5042727;28;20124;-76
2023/12/24 11:56:16;;;;;;;34.97;5.65;;;;;;;;;;5042702;28;20036;-76
2023/12/24 11:58:48;;;;;;;32.35;6.60;;;;;;;;;;5045870;28;20508;-75
2023/12/24 12:01:20;;;;;;;37.00;6.68;;;;;;;;;;5045976;28;20023;-75
2023/12/24 12:03:46;;;;;;;36.55;5.93;;;;;;;;;;5045991;28;20033;-75
2023/12/24 12:06:12;;;;;;;40.08;7.30;;;;;;;;;;5046358;28;20099;-75
2023/12/24 12:08:39;;;;;;;34.80;5.72;;;;;;;;;;5044640;28;20025;-76
2023/12/24 12:11:05;;;;;;;34.33;6.47;;;;;;;;;;5041553;28;20133;-75
2023/12/24 12:13:31;;;;;;;38.08;7.13;;;;;;;;;;5045606;28;20025;-76
2023/12/24 12:15:57;;;;;;;43.15;8.23;;;;;;;;;;5042372;28;20105;-76
2023/12/24 12:18:23;;;;;;;49.42;6.90;;;;;;;;;;5063138;28;20037;-77
2023/12/24 12:20:49;;;;;;;43.30;9.27;;;;;;;;;;5044125;28;20064;-75
2023/12/24 12:23:18;;;;;;;40.10;7.10;;;;;;;;;;5026152;28;20577;-74
2023/12/24 12:25:44;;;;;;;40.38;6.90;;;;;;;;;;5030206;28;20033;-75
2023/12/24 12:28:11;;;;;;;49.40;8.45;;;;;;;;;;5042069;28;20047;-74
2023/12/24 12:30:37;;;;;;;48.75;9.55;;;;;;;;;;5032098;28;20052;-75
2023/12/24 12:33:03;;;;;;;42.85;7.30;;;;;;;;;;5044136;28;20035;-74
2023/12/24 12:35:29;;;;;;;45.92;8.55;;;;;;;;;;5053296;28;20067;-75
2023/12/24 12:37:55;;;;;;;43.15;9.30;;;;;;;;;;5047063;28;20033;-75
2023/12/24 12:40:22;;;;;;;47.05;7.97;;;;;;;;;;5035760;28;20120;-76
2023/12/24 12:42:48;;;;;;;49.75;9.85;;;;;;;;;;5036498;28;20504;-76
2023/12/24 12:45:14;;;;;;;44.50;8.02;;;;;;;;;;5045765;28;20474;-77
2023/12/24 12:47:40;;;;;;;47.22;8.02;;;;;;;;;;5034252;28;20033;-77
2023/12/24 12:50:07;;;;;;;41.60;6.60;;;;;;;;;;5040973;28;20025;-76
2023/12/24 12:52:34;;;;;;;30.63;6.82;;;;;;;;;;5042261;28;20033;-77
2023/12/24 12:55:14;;;;;;;38.05;7.40;;;;;;;;;;5041656;28;20029;-77
2023/12/24 12:57:41;;;;;;;30.85;6.32;;;;;;;;;;5044120;28;20103;-76
2023/12/24 13:00:13;;;;;;;30.58;5.45;;;;;;;;;;5042415;28;20024;-76
2023/12/24 13:02:40;;;;;;;26.05;5.20;;;;;;;;;;5034444;28;20033;-76
2023/12/24 13:05:23;;;;;;;34.10;5.95;;;;;;;;;;5065557;28;20036;-76
2023/12/24 13:07:49;;;;;;;27.38;5.43;;;;;;;;;;5043665;28;20029;-76
2023/12/24 13:10:30;;;;;;;26.48;5.07;;;;;;;;;;5045712;28;20025;-76
2023/12/24 13:13:09;;;;;;;32.70;6.13;;;;;;;;;;5044477;28;20056;-76
2023/12/24 13:15:36;;;;;;;32.47;5.95;;;;;;;;;;5038524;28;20391;-75
2023/12/24 13:18:26;;;;;;;32.67;5.35;;;;;;;;;;5041988;28;20033;-76
2023/12/24 13:20:53;;;;;;;29.73;6.65;;;;;;;;;;5039637;28;20399;-75
2023/12/24 13:23:23;;;;;;;27.63;4.82;;;;;;;;;;5047176;28;20037;-76
2023/12/24 13:25:51;;;;;;;26.58;4.72;;;;;;;;;;5030401;28;20029;-76
2023/12/24 13:28:17;;;;;;;26.63;5.82;;;;;;;;;;5051183;28;20033;-76
2023/12/24 13:30:44;;;;;;;30.40;5.68;;;;;;;;;;5048599;28;20036;-75
2023/12/24 13:33:10;;;;;;;32.72;5.25;;;;;;;;;;5049597;28;20029;-76
2023/12/24 13:35:38;;;;;;;24.75;4.90;;;;;;;;;;5047617;28;20057;-77
2023/12/24 13:38:08;;;;;;;30.20;4.82;;;;;;;;;;5050244;28;20108;-77
2023/12/24 13:40:38;;;;;;;34.95;5.80;;;;;;;;;;5043759;28;20033;-76
2023/12/24 13:43:07;;;;;;;30.27;6.07;;;;;;;;;;5048015;28;20094;-77
2023/12/24 13:45:37;;;;;;;29.98;5.57;;;;;;;;;;5047796;28;20047;-77
2023/12/24 13:48:04;;;;;;;25.58;4.78;;;;;;;;;;5042901;28;20040;-75
2023/12/24 13:50:33;;;;;;;33.83;6.15;;;;;;;;;;5046486;28;20041;-76
2023/12/24 13:52:59;;;;;;;36.22;5.78;;;;;;;;;;5048294;28;20033;-75
2023/12/24 13:55:37;;;;;;;34.53;5.72;;;;;;;;;;5047004;28;20025;-73
2023/12/24 13:58:04;;;;;;;32.33;8.07;;;;;;;;;;5047228;28;20078;-76
2023/12/24 14:00:30;;;;;;;29.80;5.55;;;;;;;;;;5029495;28;20074;-76
2023/12/24 14:02:56;;;;;;;40.50;7.95;;;;;;;;;;5041082;28;20083;-76
2023/12/24 14:05:23;;;;;;;26.58;6.40;;;;;;;;;;5033926;28;20325;-75
2023/12/24 14:07:49;;;;;;;37.83;6.10;;;;;;;;;;5056356;28;20037;-74
2023/12/24 14:10:15;;;;;;;26.17;5.18;;;;;;;;;;5061509;28;20106;-76
2023/12/24 14:12:42;;;;;;;34.00;6.38;;;;;;;;;;5045777;28;20072;-76
2023/12/24 14:15:09;;;;;;;34.15;5.70;;;;;;;;;;5046873;28;20036;-76
2023/12/24 14:17:36;;;;;;;30.13;5.10;;;;;;;;;;5044518;28;20028;-75
2023/12/24 14:20:04;;;;;;;27.95;5.10;;;;;;;;;;5048154;28;20113;-75
2023/12/24 14:22:30;;;;;;;26.63;5.15;;;;;;;;;;5044507;28;20032;-75
2023/12/24 14:24:57;;;;;;;25.05;4.95;;;;;;;;;;5045138;28;20068;-75
2023/12/24 14:27:26;;;;;;;27.73;5.40;;;;;;;;;;5045936;28;20227;-75